sensor_id;sensor_type;location;lat;lon;timestamp;temperature;humidity
3684;DHT22;1858;48.716;9.648;2022-09-25T00:01:09;13.50;99.90
3684;DHT22;1858;48.716;9.648;2022-09-25T00:03:38;13.50;99.90
3684;DHT22;1858;48.716;9.648;2022-09-25T00:06:13;13.60;99.90
3684;DHT22;1858;48.716;9.648;2022-09-25T00:08:38;13.50;99.90
3684;DHT22;1858;48.716;9.648;2022-09-25T00:11:09;13.60;99.90
3684;DHT22;1858;48.716;9.648;2022-09-25T00:13:38;13.60;99.90
3684;DHT22;1858;48.716;9.648;2022-09-25T00:16:27;13.60;99.90
3684;DHT22;1858;48.716;9.648;2022-09-25T00:18:57;13.70;99.90
3684;DHT22;1858;48.716;9.648;2022-09-25T00:21:44;13.80;99.90
3684;DHT22;1858;48.716;9.648;2022-09-25T00:24:13;13.80;99.90
3684;DHT22;1858;48.716;9.648;2022-09-25T00:26:42;13.80;99.90
3684;DHT22;1858;48.716;9.648;2022-09-25T00:29:16;13.80;99.90
3684;DHT22;1858;48.716;9.648;2022-09-25T00:31:44;13.80;99.90
3684;DHT22;1858;48.716;9.648;2022-09-25T00:34:13;13.90;99.90
3684;DHT22;1858;48.716;9.648;2022-09-25T00:36:41;13.90;99.90
3684;DHT22;1858;48.716;9.648;2022-09-25T00:39:23;13.90;99.90
3684;DHT22;1858;48.716;9.648;2022-09-25T00:41:52;13.90;99.90
3684;DHT22;1858;48.716;9.648;2022-09-25T00:44:45;13.90;99.90
3684;DHT22;1858;48.716;9.648;2022-09-25T00:47:14;13.90;99.90
3684;DHT22;1858;48.716;9.648;2022-09-25T00:50:02;14.10;99.90
3684;DHT22;1858;48.716;9.648;2022-09-25T00:52:31;14.00;99.90
3684;DHT22;1858;48.716;9.648;2022-09-25T00:55:03;14.10;99.90
3684;DHT22;1858;48.716;9.648;2022-09-25T00:57:33;14.00;99.90
3684;DHT22;1858;48.716;9.648;2022-09-25T01:02:52;13.90;99.90
3684;DHT22;1858;48.716;9.648;2022-09-25T01:08:14;13.90;99.90
3684;DHT22;1858;48.716;9.648;2022-09-25T01:10:42;13.90;1.00
3684;DHT22;1858;48.716;9.648;2022-09-25T01:13:12;13.90;1.00
3684;DHT22;1858;48.716;9.648;2022-09-25T01:16:18;13.90;1.00
3684;DHT22;1858;48.716;9.648;2022-09-25T01:19:14;14.00;1.00
3684;DHT22;1858;48.716;9.648;2022-09-25T01:21:59;14.00;99.90
3684;DHT22;1858;48.716;9.648;2022-09-25T01:24:40;13.90;99.90
3684;DHT22;1858;48.716;9.648;2022-09-25T01:27:49;13.90;99.90
3684;DHT22;1858;48.716;9.648;2022-09-25T01:30:16;13.90;99.90
3684;DHT22;1858;48.716;9.648;2022-09-25T01:38:56;13.80;99.90
3684;DHT22;1858;48.716;9.648;2022-09-25T01:41:31;13.80;99.90
3684;DHT22;1858;48.716;9.648;2022-09-25T01:44:35;13.80;99.90
3684;DHT22;1858;48.716;9.648;2022-09-25T01:47:14;13.80;99.90
3684;DHT22;1858;48.716;9.648;2022-09-25T01:49:45;13.80;99.90
3684;DHT22;1858;48.716;9.648;2022-09-25T01:52:12;13.80;99.90
3684;DHT22;1858;48.716;9.648;2022-09-25T01:54:47;13.80;1.00
3684;DHT22;1858;48.716;9.648;2022-09-25T02:00:18;13.80;99.90
3684;DHT22;1858;48.716;9.648;2022-09-25T02:02:56;13.90;99.90
3684;DHT22;1858;48.716;9.648;2022-09-25T02:05:45;13.90;99.90
3684;DHT22;1858;48.716;9.648;2022-09-25T02:08:25;14.00;99.90
3684;DHT22;1858;48.716;9.648;2022-09-25T02:10:52;13.90;99.90
3684;DHT22;1858;48.716;9.648;2022-09-25T02:13:24;13.90;99.90
3684;DHT22;1858;48.716;9.648;2022-09-25T02:18:43;14.10;99.90
3684;DHT22;1858;48.716;9.648;2022-09-25T02:22:02;13.90;99.90
3684;DHT22;1858;48.716;9.648;2022-09-25T02:27:37;14.00;99.90
3684;DHT22;1858;48.716;9.648;2022-09-25T02:30:06;14.00;99.90
3684;DHT22;1858;48.716;9.648;2022-09-25T02:32:34;14.00;99.90
3684;DHT22;1858;48.716;9.648;2022-09-25T02:35:03;13.90;99.90
3684;DHT22;1858;48.716;9.648;2022-09-25T02:37:32;13.90;99.90
3684;DHT22;1858;48.716;9.648;2022-09-25T02:40:01;13.90;99.90
3684;DHT22;1858;48.716;9.648;2022-09-25T02:47:57;14.00;99.90
3684;DHT22;1858;48.716;9.648;2022-09-25T02:56:27;14.10;99.90
3684;DHT22;1858;48.716;9.648;2022-09-25T02:59:03;14.10;99.90
3684;DHT22;1858;48.716;9.648;2022-09-25T03:01:35;14.10;99.90
3684;DHT22;1858;48.716;9.648;2022-09-25T03:04:05;14.00;99.90
3684;DHT22;1858;48.716;9.648;2022-09-25T03:06:34;14.00;99.90
3684;DHT22;1858;48.716;9.648;2022-09-25T03:09:03;14.10;99.90
3684;DHT22;1858;48.716;9.648;2022-09-25T03:11:36;14.10;99.90
3684;DHT22;1858;48.716;9.648;2022-09-25T03:14:09;14.10;99.90
3684;DHT22;1858;48.716;9.648;2022-09-25T03:16:54;14.00;99.90
3684;DHT22;1858;48.716;9.648;2022-09-25T03:19:43;14.00;99.90
3684;DHT22;1858;48.716;9.648;2022-09-25T03:22:11;13.90;99.90
3684;DHT22;1858;48.716;9.648;2022-09-25T03:24:39;13.90;99.90
3684;DHT22;1858;48.716;9.648;2022-09-25T03:27:27;14.00;99.90
3684;DHT22;1858;48.716;9.648;2022-09-25T03:29:56;14.00;20.00
3684;DHT22;1858;48.716;9.648;2022-09-25T03:32:24;14.00;57.20
3684;DHT22;1858;48.716;9.648;2022-09-25T03:34:53;14.10;76.70
3684;DHT22;1858;48.716;9.648;2022-09-25T03:37:23;14.10;4.80
3684;DHT22;1858;48.716;9.648;2022-09-25T03:39:51;14.10;19.70
3684;DHT22;1858;48.716;9.648;2022-09-25T03:42:20;14.10;5.50
3684;DHT22;1858;48.716;9.648;2022-09-25T03:44:48;14.10;1.00
3684;DHT22;1858;48.716;9.648;2022-09-25T03:47:16;14.10;1.00
3684;DHT22;1858;48.716;9.648;2022-09-25T03:49:45;14.20;1.00
3684;DHT22;1858;48.716;9.648;2022-09-25T03:52:13;14.20;1.00
3684;DHT22;1858;48.716;9.648;2022-09-25T03:54:42;14.20;1.00
3684;DHT22;1858;48.716;9.648;2022-09-25T03:57:10;14.20;1.00
3684;DHT22;1858;48.716;9.648;2022-09-25T03:59:39;14.20;1.00
3684;DHT22;1858;48.716;9.648;2022-09-25T04:02:07;14.20;1.00
3684;DHT22;1858;48.716;9.648;2022-09-25T04:04:36;14.10;1.00
3684;DHT22;1858;48.716;9.648;2022-09-25T04:07:05;14.10;1.00
3684;DHT22;1858;48.716;9.648;2022-09-25T04:09:35;14.10;1.00
3684;DHT22;1858;48.716;9.648;2022-09-25T04:12:03;14.10;1.00
3684;DHT22;1858;48.716;9.648;2022-09-25T04:14:33;14.10;23.30
3684;DHT22;1858;48.716;9.648;2022-09-25T04:17:01;14.10;12.20
3684;DHT22;1858;48.716;9.648;2022-09-25T04:19:30;14.10;2.10
3684;DHT22;1858;48.716;9.648;2022-09-25T04:21:58;14.10;46.30
3684;DHT22;1858;48.716;9.648;2022-09-25T04:24:26;14.20;81.70
3684;DHT22;1858;48.716;9.648;2022-09-25T04:27:52;14.20;1.00
3684;DHT22;1858;48.716;9.648;2022-09-25T04:30:27;14.20;1.00
3684;DHT22;1858;48.716;9.648;2022-09-25T04:32:56;14.20;1.00
3684;DHT22;1858;48.716;9.648;2022-09-25T04:35:42;14.20;1.00
3684;DHT22;1858;48.716;9.648;2022-09-25T04:38:11;14.10;1.00
3684;DHT22;1858;48.716;9.648;2022-09-25T04:40:39;14.00;1.00
3684;DHT22;1858;48.716;9.648;2022-09-25T04:43:08;14.10;1.00
3684;DHT22;1858;48.716;9.648;2022-09-25T04:45:36;14.00;1.00
3684;DHT22;1858;48.716;9.648;2022-09-25T04:48:24;14.10;30.50
3684;DHT22;1858;48.716;9.648;2022-09-25T04:50:52;14.10;1.00
3684;DHT22;1858;48.716;9.648;2022-09-25T04:53:21;14.00;1.00
3684;DHT22;1858;48.716;9.648;2022-09-25T04:55:49;13.90;1.00
3684;DHT22;1858;48.716;9.648;2022-09-25T04:58:18;13.90;1.00
3684;DHT22;1858;48.716;9.648;2022-09-25T05:00:46;13.90;68.50
3684;DHT22;1858;48.716;9.648;2022-09-25T05:03:15;13.90;99.90
3684;DHT22;1858;48.716;9.648;2022-09-25T05:05:44;13.90;99.90
3684;DHT22;1858;48.716;9.648;2022-09-25T05:08:12;13.90;99.90
3684;DHT22;1858;48.716;9.648;2022-09-25T05:10:42;14.00;99.90
3684;DHT22;1858;48.716;9.648;2022-09-25T05:13:11;14.00;7.60
3684;DHT22;1858;48.716;9.648;2022-09-25T05:15:39;14.00;1.00
3684;DHT22;1858;48.716;9.648;2022-09-25T05:20:57;14.00;1.00
3684;DHT22;1858;48.716;9.648;2022-09-25T05:23:27;14.00;1.00
3684;DHT22;1858;48.716;9.648;2022-09-25T05:25:56;14.00;1.00
3684;DHT22;1858;48.716;9.648;2022-09-25T05:28:33;14.00;1.00
3684;DHT22;1858;48.716;9.648;2022-09-25T05:31:02;14.00;1.00
3684;DHT22;1858;48.716;9.648;2022-09-25T05:33:50;14.00;1.00
3684;DHT22;1858;48.716;9.648;2022-09-25T05:36:20;14.00;1.00
3684;DHT22;1858;48.716;9.648;2022-09-25T05:38:48;14.00;1.00
3684;DHT22;1858;48.716;9.648;2022-09-25T05:41:17;14.10;1.00
3684;DHT22;1858;48.716;9.648;2022-09-25T05:44:04;14.10;1.00
3684;DHT22;1858;48.716;9.648;2022-09-25T05:46:54;14.10;1.00
3684;DHT22;1858;48.716;9.648;2022-09-25T05:49:44;14.10;1.00
3684;DHT22;1858;48.716;9.648;2022-09-25T05:52:12;14.10;1.00
3684;DHT22;1858;48.716;9.648;2022-09-25T05:54:40;14.20;1.00
3684;DHT22;1858;48.716;9.648;2022-09-25T05:57:09;14.20;1.00
3684;DHT22;1858;48.716;9.648;2022-09-25T05:59:37;14.20;1.00
3684;DHT22;1858;48.716;9.648;2022-09-25T06:02:07;14.00;1.00
3684;DHT22;1858;48.716;9.648;2022-09-25T06:04:36;14.10;1.00
3684;DHT22;1858;48.716;9.648;2022-09-25T06:07:04;14.10;1.00
3684;DHT22;1858;48.716;9.648;2022-09-25T06:09:32;14.10;1.00
3684;DHT22;1858;48.716;9.648;2022-09-25T06:12:01;14.10;1.00
3684;DHT22;1858;48.716;9.648;2022-09-25T06:14:30;14.10;1.00
3684;DHT22;1858;48.716;9.648;2022-09-25T06:16:59;14.00;1.00
3684;DHT22;1858;48.716;9.648;2022-09-25T06:19:28;14.00;1.00
3684;DHT22;1858;48.716;9.648;2022-09-25T06:22:15;14.10;1.00
3684;DHT22;1858;48.716;9.648;2022-09-25T06:24:44;14.20;1.00
3684;DHT22;1858;48.716;9.648;2022-09-25T06:27:33;14.10;1.00
3684;DHT22;1858;48.716;9.648;2022-09-25T06:30:02;14.10;1.00
3684;DHT22;1858;48.716;9.648;2022-09-25T06:32:31;14.20;1.00
3684;DHT22;1858;48.716;9.648;2022-09-25T06:34:59;14.30;1.00
3684;DHT22;1858;48.716;9.648;2022-09-25T06:37:28;14.40;1.00
3684;DHT22;1858;48.716;9.648;2022-09-25T06:40:15;14.40;99.90
3684;DHT22;1858;48.716;9.648;2022-09-25T06:42:44;14.40;99.90
3684;DHT22;1858;48.716;9.648;2022-09-25T06:45:12;14.40;99.90
3684;DHT22;1858;48.716;9.648;2022-09-25T06:47:40;14.50;99.90
3684;DHT22;1858;48.716;9.648;2022-09-25T06:50:09;14.50;99.90
3684;DHT22;1858;48.716;9.648;2022-09-25T06:52:42;14.60;99.90
3684;DHT22;1858;48.716;9.648;2022-09-25T06:55:10;14.70;99.90
3684;DHT22;1858;48.716;9.648;2022-09-25T06:57:38;14.80;99.90
3684;DHT22;1858;48.716;9.648;2022-09-25T07:02:57;14.90;99.90
3684;DHT22;1858;48.716;9.648;2022-09-25T07:05:44;14.90;49.30
3684;DHT22;1858;48.716;9.648;2022-09-25T07:08:15;15.00;47.40
3684;DHT22;1858;48.716;9.648;2022-09-25T07:10:48;15.00;41.90
3684;DHT22;1858;48.716;9.648;2022-09-25T07:13:36;14.90;1.00
3684;DHT22;1858;48.716;9.648;2022-09-25T07:18:56;15.10;1.00
3684;DHT22;1858;48.716;9.648;2022-09-25T07:21:27;14.90;1.00
3684;DHT22;1858;48.716;9.648;2022-09-25T07:23:57;15.00;6.80
3684;DHT22;1858;48.716;9.648;2022-09-25T07:26:27;15.10;51.50
3684;DHT22;1858;48.716;9.648;2022-09-25T07:29:15;15.20;37.00
3684;DHT22;1858;48.716;9.648;2022-09-25T07:32:03;15.20;60.60
3684;DHT22;1858;48.716;9.648;2022-09-25T07:34:33;15.20;99.90
3684;DHT22;1858;48.716;9.648;2022-09-25T07:37:03;15.40;99.90
3684;DHT22;1858;48.716;9.648;2022-09-25T07:39:32;15.50;38.00
3684;DHT22;1858;48.716;9.648;2022-09-25T07:42:00;15.60;1.00
3684;DHT22;1858;48.716;9.648;2022-09-25T07:44:30;15.70;1.00
3684;DHT22;1858;48.716;9.648;2022-09-25T07:46:58;15.70;1.00
3684;DHT22;1858;48.716;9.648;2022-09-25T07:49:30;15.70;1.00
3684;DHT22;1858;48.716;9.648;2022-09-25T07:52:17;15.70;1.00
3684;DHT22;1858;48.716;9.648;2022-09-25T07:54:46;15.70;1.00
3684;DHT22;1858;48.716;9.648;2022-09-25T07:57:14;15.70;1.00
3684;DHT22;1858;48.716;9.648;2022-09-25T07:59:48;15.80;1.00
3684;DHT22;1858;48.716;9.648;2022-09-25T08:02:16;15.80;1.00
3684;DHT22;1858;48.716;9.648;2022-09-25T08:04:44;15.90;1.00
3684;DHT22;1858;48.716;9.648;2022-09-25T08:07:13;16.10;1.00
3684;DHT22;1858;48.716;9.648;2022-09-25T08:09:41;16.40;1.00
3684;DHT22;1858;48.716;9.648;2022-09-25T08:12:10;16.50;1.00
3684;DHT22;1858;48.716;9.648;2022-09-25T08:14:39;16.50;1.00
3684;DHT22;1858;48.716;9.648;2022-09-25T08:17:08;16.50;1.00
3684;DHT22;1858;48.716;9.648;2022-09-25T08:19:36;16.60;1.00
3684;DHT22;1858;48.716;9.648;2022-09-25T08:22:05;16.60;1.00
3684;DHT22;1858;48.716;9.648;2022-09-25T08:24:33;16.60;1.00
3684;DHT22;1858;48.716;9.648;2022-09-25T08:27:21;16.60;1.00
3684;DHT22;1858;48.716;9.648;2022-09-25T08:29:49;16.70;1.00
3684;DHT22;1858;48.716;9.648;2022-09-25T08:32:17;16.90;1.00
3684;DHT22;1858;48.716;9.648;2022-09-25T08:34:46;17.00;1.00
3684;DHT22;1858;48.716;9.648;2022-09-25T08:37:15;17.00;99.90
3684;DHT22;1858;48.716;9.648;2022-09-25T08:39:45;17.00;99.90
3684;DHT22;1858;48.716;9.648;2022-09-25T08:42:34;17.00;99.90
3684;DHT22;1858;48.716;9.648;2022-09-25T08:45:06;17.10;99.90
3684;DHT22;1858;48.716;9.648;2022-09-25T08:47:54;17.20;99.90
3684;DHT22;1858;48.716;9.648;2022-09-25T08:50:41;17.30;99.90
3684;DHT22;1858;48.716;9.648;2022-09-25T08:53:18;17.20;99.90
3684;DHT22;1858;48.716;9.648;2022-09-25T08:55:44;17.30;99.90
3684;DHT22;1858;48.716;9.648;2022-09-25T08:58:32;17.40;99.90
3684;DHT22;1858;48.716;9.648;2022-09-25T09:01:04;17.40;99.90
3684;DHT22;1858;48.716;9.648;2022-09-25T09:03:44;17.40;99.90
3684;DHT22;1858;48.716;9.648;2022-09-25T09:06:06;17.40;99.90
3684;DHT22;1858;48.716;9.648;2022-09-25T09:08:37;17.40;99.90
3684;DHT22;1858;48.716;9.648;2022-09-25T09:17:04;17.50;99.90
3684;DHT22;1858;48.716;9.648;2022-09-25T09:19:28;17.60;99.90
3684;DHT22;1858;48.716;9.648;2022-09-25T09:22:18;17.70;99.90
3684;DHT22;1858;48.716;9.648;2022-09-25T09:25:02;17.80;99.90
3684;DHT22;1858;48.716;9.648;2022-09-25T09:27:43;17.80;99.90
3684;DHT22;1858;48.716;9.648;2022-09-25T09:36:40;18.10;99.90
3684;DHT22;1858;48.716;9.648;2022-09-25T09:39:32;18.20;99.90
3684;DHT22;1858;48.716;9.648;2022-09-25T09:45:05;18.30;99.90
3684;DHT22;1858;48.716;9.648;2022-09-25T09:47:46;18.40;99.90
3684;DHT22;1858;48.716;9.648;2022-09-25T09:50:49;18.50;99.90
3684;DHT22;1858;48.716;9.648;2022-09-25T09:55:53;18.60;99.90
3684;DHT22;1858;48.716;9.648;2022-09-25T09:58:28;18.70;99.90
3684;DHT22;1858;48.716;9.648;2022-09-25T10:01:16;18.80;99.90
3684;DHT22;1858;48.716;9.648;2022-09-25T10:03:47;18.70;99.90
3684;DHT22;1858;48.716;9.648;2022-09-25T10:06:20;18.70;99.90
3684;DHT22;1858;48.716;9.648;2022-09-25T10:08:50;18.80;99.90
3684;DHT22;1858;48.716;9.648;2022-09-25T10:14:10;18.90;43.30
3684;DHT22;1858;48.716;9.648;2022-09-25T10:16:39;19.10;59.70
3684;DHT22;1858;48.716;9.648;2022-09-25T10:19:21;19.50;70.70
3684;DHT22;1858;48.716;9.648;2022-09-25T10:21:58;19.70;1.00
3684;DHT22;1858;48.716;9.648;2022-09-25T10:27:26;20.90;1.00
3684;DHT22;1858;48.716;9.648;2022-09-25T10:30:15;21.50;1.00
3684;DHT22;1858;48.716;9.648;2022-09-25T10:33:13;22.00;1.00
3684;DHT22;1858;48.716;9.648;2022-09-25T10:38:23;22.10;1.00
3684;DHT22;1858;48.716;9.648;2022-09-25T10:43:56;21.50;1.00
3684;DHT22;1858;48.716;9.648;2022-09-25T10:46:46;21.30;1.00
3684;DHT22;1858;48.716;9.648;2022-09-25T10:49:43;21.10;1.00
3684;DHT22;1858;48.716;9.648;2022-09-25T10:52:21;21.00;1.00
3684;DHT22;1858;48.716;9.648;2022-09-25T10:54:50;21.00;1.00
3684;DHT22;1858;48.716;9.648;2022-09-25T10:57:37;20.90;1.00
3684;DHT22;1858;48.716;9.648;2022-09-25T11:00:24;21.00;1.00
3684;DHT22;1858;48.716;9.648;2022-09-25T11:03:01;21.30;1.00
3684;DHT22;1858;48.716;9.648;2022-09-25T11:05:32;21.60;1.00
3684;DHT22;1858;48.716;9.648;2022-09-25T11:08:04;21.40;1.00
3684;DHT22;1858;48.716;9.648;2022-09-25T11:10:35;21.30;1.00
3684;DHT22;1858;48.716;9.648;2022-09-25T11:13:08;21.30;1.00
3684;DHT22;1858;48.716;9.648;2022-09-25T11:15:37;21.00;1.00
3684;DHT22;1858;48.716;9.648;2022-09-25T11:18:07;20.90;1.00
3684;DHT22;1858;48.716;9.648;2022-09-25T11:21:03;20.80;1.00
3684;DHT22;1858;48.716;9.648;2022-09-25T11:26:34;20.70;1.00
3684;DHT22;1858;48.716;9.648;2022-09-25T11:29:02;20.60;1.00
3684;DHT22;1858;48.716;9.648;2022-09-25T11:31:45;20.50;1.00
3684;DHT22;1858;48.716;9.648;2022-09-25T11:37:20;20.20;1.00
3684;DHT22;1858;48.716;9.648;2022-09-25T11:43:10;20.10;1.00
3684;DHT22;1858;48.716;9.648;2022-09-25T11:45:49;20.10;1.00
3684;DHT22;1858;48.716;9.648;2022-09-25T11:51:51;20.10;1.00
3684;DHT22;1858;48.716;9.648;2022-09-25T11:54:20;20.20;1.00
3684;DHT22;1858;48.716;9.648;2022-09-25T11:57:02;20.20;1.00
3684;DHT22;1858;48.716;9.648;2022-09-25T11:59:39;20.30;1.00
3684;DHT22;1858;48.716;9.648;2022-09-25T12:32:42;18.10;1.00
3684;DHT22;1858;48.716;9.648;2022-09-25T12:41:08;17.70;1.00
3684;DHT22;1858;48.716;9.648;2022-09-25T12:49:44;17.50;2.10
3684;DHT22;1858;48.716;9.648;2022-09-25T12:52:20;17.50;57.90
3684;DHT22;1858;48.716;9.648;2022-09-25T12:54:56;17.60;99.90
3684;DHT22;1858;48.716;9.648;2022-09-25T12:57:26;17.30;99.90
3684;DHT22;1858;48.716;9.648;2022-09-25T13:06:07;17.10;99.90
3684;DHT22;1858;48.716;9.648;2022-09-25T13:09:41;17.10;99.90
3684;DHT22;1858;48.716;9.648;2022-09-25T13:11:37;17.20;99.90
3684;DHT22;1858;48.716;9.648;2022-09-25T13:14:10;17.20;99.90
3684;DHT22;1858;48.716;9.648;2022-09-25T13:16:38;17.30;99.90
3684;DHT22;1858;48.716;9.648;2022-09-25T13:22:10;17.40;99.90
3684;DHT22;1858;48.716;9.648;2022-09-25T13:24:43;17.40;99.90
3684;DHT22;1858;48.716;9.648;2022-09-25T13:27:15;17.60;99.90
3684;DHT22;1858;48.716;9.648;2022-09-25T13:29:50;17.70;99.90
3684;DHT22;1858;48.716;9.648;2022-09-25T13:32:22;17.80;99.90
3684;DHT22;1858;48.716;9.648;2022-09-25T13:34:54;18.00;99.90
3684;DHT22;1858;48.716;9.648;2022-09-25T13:37:30;18.10;99.90
3684;DHT22;1858;48.716;9.648;2022-09-25T13:40:00;18.40;99.90
3684;DHT22;1858;48.716;9.648;2022-09-25T13:42:46;18.50;99.90
3684;DHT22;1858;48.716;9.648;2022-09-25T13:45:33;18.60;59.40
3684;DHT22;1858;48.716;9.648;2022-09-25T13:53:56;18.50;27.60
3684;DHT22;1858;48.716;9.648;2022-09-25T13:56:44;18.40;73.40
3684;DHT22;1858;48.716;9.648;2022-09-25T14:01:49;18.10;22.00
3684;DHT22;1858;48.716;9.648;2022-09-25T14:04:21;18.10;43.40
3684;DHT22;1858;48.716;9.648;2022-09-25T14:06:54;18.10;59.70
3684;DHT22;1858;48.716;9.648;2022-09-25T14:09:27;18.00;36.60
3684;DHT22;1858;48.716;9.648;2022-09-25T14:14:46;18.00;75.00
3684;DHT22;1858;48.716;9.648;2022-09-25T14:17:17;17.90;36.50
3684;DHT22;1858;48.716;9.648;2022-09-25T14:19:48;17.90;37.10
3684;DHT22;1858;48.716;9.648;2022-09-25T14:25:26;17.90;84.90
3684;DHT22;1858;48.716;9.648;2022-09-25T14:27:56;17.90;28.90
3684;DHT22;1858;48.716;9.648;2022-09-25T14:30:26;17.90;69.60
3684;DHT22;1858;48.716;9.648;2022-09-25T14:36:05;17.90;50.20
3684;DHT22;1858;48.716;9.648;2022-09-25T14:41:14;17.90;73.00
3684;DHT22;1858;48.716;9.648;2022-09-25T14:46:39;17.90;55.00
3684;DHT22;1858;48.716;9.648;2022-09-25T14:49:26;18.00;25.90
3684;DHT22;1858;48.716;9.648;2022-09-25T14:51:58;18.10;40.90
3684;DHT22;1858;48.716;9.648;2022-09-25T14:54:29;18.00;34.40
3684;DHT22;1858;48.716;9.648;2022-09-25T14:59:49;18.00;13.70
3684;DHT22;1858;48.716;9.648;2022-09-25T15:02:30;18.00;30.40
3684;DHT22;1858;48.716;9.648;2022-09-25T15:07:58;18.00;66.60
3684;DHT22;1858;48.716;9.648;2022-09-25T15:10:31;18.00;61.20
3684;DHT22;1858;48.716;9.648;2022-09-25T15:13:14;18.00;34.50
3684;DHT22;1858;48.716;9.648;2022-09-25T15:15:45;18.10;54.40
3684;DHT22;1858;48.716;9.648;2022-09-25T15:18:35;18.20;55.90
3684;DHT22;1858;48.716;9.648;2022-09-25T15:21:06;18.30;51.90
3684;DHT22;1858;48.716;9.648;2022-09-25T15:23:34;18.30;41.60
3684;DHT22;1858;48.716;9.648;2022-09-25T15:26:05;18.20;16.60
3684;DHT22;1858;48.716;9.648;2022-09-25T15:28:36;18.20;25.40
3684;DHT22;1858;48.716;9.648;2022-09-25T15:31:08;18.30;32.80
3684;DHT22;1858;48.716;9.648;2022-09-25T15:33:38;18.30;36.30
3684;DHT22;1858;48.716;9.648;2022-09-25T15:36:21;18.20;26.30
3684;DHT22;1858;48.716;9.648;2022-09-25T15:38:57;18.10;28.70
3684;DHT22;1858;48.716;9.648;2022-09-25T15:41:29;18.00;39.10
3684;DHT22;1858;48.716;9.648;2022-09-25T15:44:13;18.00;35.40
3684;DHT22;1858;48.716;9.648;2022-09-25T15:46:49;17.90;47.10
3684;DHT22;1858;48.716;9.648;2022-09-25T15:49:24;17.80;64.00
3684;DHT22;1858;48.716;9.648;2022-09-25T15:51:54;17.80;83.40
3684;DHT22;1858;48.716;9.648;2022-09-25T15:54:31;17.80;73.90
3684;DHT22;1858;48.716;9.648;2022-09-25T15:57:16;17.80;86.30
3684;DHT22;1858;48.716;9.648;2022-09-25T15:59:45;17.70;62.40
3684;DHT22;1858;48.716;9.648;2022-09-25T16:02:19;17.70;61.40
3684;DHT22;1858;48.716;9.648;2022-09-25T16:05:07;17.60;72.50
3684;DHT22;1858;48.716;9.648;2022-09-25T16:08:23;17.40;99.90
3684;DHT22;1858;48.716;9.648;2022-09-25T16:10:46;17.40;99.90
3684;DHT22;1858;48.716;9.648;2022-09-25T16:13:20;17.40;99.90
3684;DHT22;1858;48.716;9.648;2022-09-25T16:15:50;17.40;87.40
3684;DHT22;1858;48.716;9.648;2022-09-25T16:21:10;17.10;99.90
3684;DHT22;1858;48.716;9.648;2022-09-25T16:23:37;17.00;99.90
3684;DHT22;1858;48.716;9.648;2022-09-25T16:26:19;16.90;99.90
3684;DHT22;1858;48.716;9.648;2022-09-25T16:28:58;16.70;99.90
3684;DHT22;1858;48.716;9.648;2022-09-25T16:31:44;16.70;99.90
3684;DHT22;1858;48.716;9.648;2022-09-25T16:37:17;16.60;99.90
3684;DHT22;1858;48.716;9.648;2022-09-25T16:39:39;16.60;99.90
3684;DHT22;1858;48.716;9.648;2022-09-25T16:47:50;16.30;99.90
3684;DHT22;1858;48.716;9.648;2022-09-25T16:50:20;16.20;99.90
3684;DHT22;1858;48.716;9.648;2022-09-25T16:52:49;16.20;99.90
3684;DHT22;1858;48.716;9.648;2022-09-25T16:55:23;16.10;99.90
3684;DHT22;1858;48.716;9.648;2022-09-25T16:58:13;16.00;99.90
3684;DHT22;1858;48.716;9.648;2022-09-25T17:00:41;15.90;99.90
3684;DHT22;1858;48.716;9.648;2022-09-25T17:03:11;15.80;99.90
3684;DHT22;1858;48.716;9.648;2022-09-25T17:05:40;15.80;99.90
3684;DHT22;1858;48.716;9.648;2022-09-25T17:08:19;15.80;99.90
3684;DHT22;1858;48.716;9.648;2022-09-25T17:10:51;15.70;99.90
3684;DHT22;1858;48.716;9.648;2022-09-25T17:13:23;15.70;99.90
3684;DHT22;1858;48.716;9.648;2022-09-25T17:15:51;15.70;99.90
3684;DHT22;1858;48.716;9.648;2022-09-25T17:18:21;15.50;99.90
3684;DHT22;1858;48.716;9.648;2022-09-25T17:20:51;15.50;99.90
3684;DHT22;1858;48.716;9.648;2022-09-25T17:23:21;15.50;99.90
3684;DHT22;1858;48.716;9.648;2022-09-25T17:26:11;15.50;99.90
3684;DHT22;1858;48.716;9.648;2022-09-25T17:28:35;15.30;99.90
3684;DHT22;1858;48.716;9.648;2022-09-25T17:31:04;15.30;99.90
3684;DHT22;1858;48.716;9.648;2022-09-25T17:33:32;15.30;99.90
3684;DHT22;1858;48.716;9.648;2022-09-25T17:36:05;15.30;99.90
3684;DHT22;1858;48.716;9.648;2022-09-25T17:38:35;15.20;99.90
3684;DHT22;1858;48.716;9.648;2022-09-25T17:41:06;15.10;99.90
3684;DHT22;1858;48.716;9.648;2022-09-25T17:43:35;15.00;99.90
3684;DHT22;1858;48.716;9.648;2022-09-25T17:46:03;14.90;99.90
3684;DHT22;1858;48.716;9.648;2022-09-25T17:48:33;15.00;99.90
3684;DHT22;1858;48.716;9.648;2022-09-25T17:51:19;14.90;99.90
3684;DHT22;1858;48.716;9.648;2022-09-25T17:53:48;14.90;99.90
3684;DHT22;1858;48.716;9.648;2022-09-25T17:56:16;14.90;99.90
3684;DHT22;1858;48.716;9.648;2022-09-25T17:58:45;14.90;1.00
3684;DHT22;1858;48.716;9.648;2022-09-25T18:01:19;15.00;1.00
3684;DHT22;1858;48.716;9.648;2022-09-25T18:03:57;14.90;99.90
3684;DHT22;1858;48.716;9.648;2022-09-25T18:06:22;14.80;99.90
3684;DHT22;1858;48.716;9.648;2022-09-25T18:08:51;14.80;99.90
3684;DHT22;1858;48.716;9.648;2022-09-25T18:11:23;14.80;99.90
3684;DHT22;1858;48.716;9.648;2022-09-25T18:13:54;14.70;99.90
3684;DHT22;1858;48.716;9.648;2022-09-25T18:16:31;14.70;1.00
3684;DHT22;1858;48.716;9.648;2022-09-25T18:18:55;14.70;1.00
3684;DHT22;1858;48.716;9.648;2022-09-25T18:21:43;14.70;1.00
3684;DHT22;1858;48.716;9.648;2022-09-25T18:24:29;14.70;1.00
3684;DHT22;1858;48.716;9.648;2022-09-25T18:26:57;14.80;1.00
3684;DHT22;1858;48.716;9.648;2022-09-25T18:29:26;14.70;1.00
3684;DHT22;1858;48.716;9.648;2022-09-25T18:31:54;14.80;1.00
3684;DHT22;1858;48.716;9.648;2022-09-25T18:34:23;14.80;1.00
3684;DHT22;1858;48.716;9.648;2022-09-25T18:36:52;14.80;1.00
3684;DHT22;1858;48.716;9.648;2022-09-25T18:39:21;14.80;1.00
3684;DHT22;1858;48.716;9.648;2022-09-25T18:41:49;14.80;1.00
3684;DHT22;1858;48.716;9.648;2022-09-25T18:44:17;14.80;1.00
3684;DHT22;1858;48.716;9.648;2022-09-25T18:46:48;14.80;1.00
3684;DHT22;1858;48.716;9.648;2022-09-25T18:49:16;14.90;1.00
3684;DHT22;1858;48.716;9.648;2022-09-25T18:51:45;14.90;1.00
3684;DHT22;1858;48.716;9.648;2022-09-25T18:54:14;14.90;1.00
3684;DHT22;1858;48.716;9.648;2022-09-25T18:56:43;14.90;1.40
3684;DHT22;1858;48.716;9.648;2022-09-25T18:59:12;14.90;1.00
3684;DHT22;1858;48.716;9.648;2022-09-25T19:01:40;14.90;1.00
3684;DHT22;1858;48.716;9.648;2022-09-25T19:04:12;14.90;1.00
3684;DHT22;1858;48.716;9.648;2022-09-25T19:06:40;14.90;1.00
3684;DHT22;1858;48.716;9.648;2022-09-25T19:09:08;14.90;1.00
3684;DHT22;1858;48.716;9.648;2022-09-25T19:11:37;14.80;1.00
3684;DHT22;1858;48.716;9.648;2022-09-25T19:14:05;14.70;1.00
3684;DHT22;1858;48.716;9.648;2022-09-25T19:16:33;14.80;1.00
3684;DHT22;1858;48.716;9.648;2022-09-25T19:19:02;14.70;1.00
3684;DHT22;1858;48.716;9.648;2022-09-25T19:21:30;14.70;1.00
3684;DHT22;1858;48.716;9.648;2022-09-25T19:23:59;14.70;1.00
3684;DHT22;1858;48.716;9.648;2022-09-25T19:26:28;14.80;1.00
3684;DHT22;1858;48.716;9.648;2022-09-25T19:28:57;14.70;1.00
3684;DHT22;1858;48.716;9.648;2022-09-25T19:31:27;14.80;1.00
3684;DHT22;1858;48.716;9.648;2022-09-25T19:33:56;14.80;1.00
3684;DHT22;1858;48.716;9.648;2022-09-25T19:36:28;14.90;1.00
3684;DHT22;1858;48.716;9.648;2022-09-25T19:41:46;14.80;1.00
3684;DHT22;1858;48.716;9.648;2022-09-25T19:44:15;14.80;1.00
3684;DHT22;1858;48.716;9.648;2022-09-25T19:46:45;14.80;1.00